sensor_id;sensor_type;location;lat;lon;timestamp;pressure;altitude;pressure_sealevel;temperature;humidity
76046;BME280;64741;41.730;44.788;2023-11-22T00:01:55;993.3;;;21.1;36.6
76046;BME280;64741;41.730;44.788;2023-11-22T00:06:53;993.3;;;21.1;36.6
76046;BME280;64741;41.730;44.788;2023-11-22T00:11:31;993.2;;;21.1;36.6
76046;BME280;64741;41.730;44.788;2023-11-22T00:16:55;993.3;;;21.1;36.5
76046;BME280;64741;41.730;44.788;2023-11-22T00:21:49;993.4;;;21;36.5
76046;BME280;64741;41.730;44.788;2023-11-22T00:26:51;993.4;;;21;36.4
76046;BME280;64741;41.730;44.788;2023-11-22T00:31:53;993.5;;;21;36.4
76046;BME280;64741;41.730;44.788;2023-11-22T00:36:43;993.6;;;21;36.4
76046;BME280;64741;41.730;44.788;2023-11-22T00:41:43;993.7;;;21;36.4
76046;BME280;64741;41.730;44.788;2023-11-22T00:46:49;993.8;;;21.1;36.5
76046;BME280;64741;41.730;44.788;2023-11-22T00:51:55;993.8;;;21.1;36.5
76046;BME280;64741;41.730;44.788;2023-11-22T00:56:53;993.8;;;21.1;36.6
76046;BME280;64741;41.730;44.788;2023-11-22T01:01:43;993.8;;;21;36.8
76046;BME280;64741;41.730;44.788;2023-11-22T01:06:39;993.8;;;21;36.9
76046;BME280;64741;41.730;44.788;2023-11-22T01:11:49;993.8;;;21;36.6
76046;BME280;64741;41.730;44.788;2023-11-22T01:16:55;993.7;;;21;36.6
76046;BME280;64741;41.730;44.788;2023-11-22T01:21:51;993.8;;;21;36.5
76046;BME280;64741;41.730;44.788;2023-11-22T01:26:43;993.9;;;21;36.6
76046;BME280;64741;41.730;44.788;2023-11-22T01:31:55;993.9;;;21;36.7
76046;BME280;64741;41.730;44.788;2023-11-22T01:36:40;993.9;;;21;36.6
76046;BME280;64741;41.730;44.788;2023-11-22T01:41:53;994;;;21;36.6
76046;BME280;64741;41.730;44.788;2023-11-22T01:46:07;994;;;21;36.8
76046;BME280;64741;41.730;44.788;2023-11-22T01:51:43;994;;;21;37.1
76046;BME280;64741;41.730;44.788;2023-11-22T01:56:55;994.2;;;21;36.8
76046;BME280;64741;41.730;44.788;2023-11-22T02:01:49;994.2;;;21;36.8
76046;BME280;64741;41.730;44.788;2023-11-22T02:06:53;994.1;;;21;36.8
76046;BME280;64741;41.730;44.788;2023-11-22T02:11:53;994;;;21;36.8
76046;BME280;64741;41.730;44.788;2023-11-22T02:16:43;994.1;;;21;36.8
76046;BME280;64741;41.730;44.788;2023-11-22T02:21:55;994.1;;;21;36.7
76046;BME280;64741;41.730;44.788;2023-11-22T02:26:49;994.1;;;21;36.7
76046;BME280;64741;41.730;44.788;2023-11-22T02:31:53;994.2;;;21;36.6
76046;BME280;64741;41.730;44.788;2023-11-22T02:36:53;994.3;;;21;36.6
76046;BME280;64741;41.730;44.788;2023-11-22T02:41:41;994.2;;;21;36.6
76046;BME280;64741;41.730;44.788;2023-11-22T02:46:55;994.2;;;21;36.6
76046;BME280;64741;41.730;44.788;2023-11-22T02:51:49;994.4;;;21;36.7
76046;BME280;64741;41.730;44.788;2023-11-22T02:56:53;994.7;;;21;36.8
76046;BME280;64741;41.730;44.788;2023-11-22T03:01:53;994.9;;;21;36.8
76046;BME280;64741;41.730;44.788;2023-11-22T03:06:43;994.9;;;21;36.8
76046;BME280;64741;41.730;44.788;2023-11-22T03:11:55;995;;;21;36.8
76046;BME280;64741;41.730;44.788;2023-11-22T03:16:49;995.2;;;21;36.9
76046;BME280;64741;41.730;44.788;2023-11-22T03:21:55;995.3;;;21;36.8
76046;BME280;64741;41.730;44.788;2023-11-22T03:26:53;995.4;;;21;37
76046;BME280;64741;41.730;44.788;2023-11-22T03:31:29;995.4;;;21;37.1
76046;BME280;64741;41.730;44.788;2023-11-22T03:36:53;995.5;;;21;37
76046;BME280;64741;41.730;44.788;2023-11-22T03:41:49;995.6;;;21;37
76046;BME280;64741;41.730;44.788;2023-11-22T03:46:45;995.6;;;21;37.1
76046;BME280;64741;41.730;44.788;2023-11-22T03:51:40;995.7;;;21;37.2
76046;BME280;64741;41.730;44.788;2023-11-22T03:56:41;995.8;;;21;37.4
76046;BME280;64741;41.730;44.788;2023-11-22T04:01:39;995.8;;;21;37.4
76046;BME280;64741;41.730;44.788;2023-11-22T04:06:49;995.7;;;21;37.5
76046;BME280;64741;41.730;44.788;2023-11-22T04:11:55;995.7;;;21;37.3
76046;BME280;64741;41.730;44.788;2023-11-22T04:16:53;995.9;;;21.1;37.3
76046;BME280;64741;41.730;44.788;2023-11-22T04:21:43;995.9;;;21.1;37.2
76046;BME280;64741;41.730;44.788;2023-11-22T04:26:53;996;;;21;37.2
76046;BME280;64741;41.730;44.788;2023-11-22T04:31:49;996.2;;;21;37.1
76046;BME280;64741;41.730;44.788;2023-11-22T04:36:31;996.2;;;21;37.2
76046;BME280;64741;41.730;44.788;2023-11-22T04:41:17;996.3;;;21;37.2
76046;BME280;64741;41.730;44.788;2023-11-22T04:46:53;996.3;;;21;37.3
76046;BME280;64741;41.730;44.788;2023-11-22T04:51:45;996.4;;;21;37.2
76046;BME280;64741;41.730;44.788;2023-11-22T04:56:53;996.5;;;21;37.1
76046;BME280;64741;41.730;44.788;2023-11-22T05:01:49;996.4;;;21;37.2
76046;BME280;64741;41.730;44.788;2023-11-22T05:06:41;996.5;;;21;37.2
76046;BME280;64741;41.730;44.788;2023-11-22T05:11:51;996.6;;;21;37.4
76046;BME280;64741;41.730;44.788;2023-11-22T05:16:49;996.6;;;21;37.1
76046;BME280;64741;41.730;44.788;2023-11-22T05:21:53;996.6;;;21;37
76046;BME280;64741;41.730;44.788;2023-11-22T05:26:51;996.7;;;21;37
76046;BME280;64741;41.730;44.788;2023-11-22T05:31:41;996.8;;;21;36.9
76046;BME280;64741;41.730;44.788;2023-11-22T05:36:51;996.8;;;20.9;37.1
76046;BME280;64741;41.730;44.788;2023-11-22T05:41:29;996.8;;;20.9;37.4
76046;BME280;64741;41.730;44.788;2023-11-22T05:46:55;996.8;;;20.9;37.5
76046;BME280;64741;41.730;44.788;2023-11-22T05:51:51;996.7;;;20.9;37.4
76046;BME280;64741;41.730;44.788;2023-11-22T05:56:41;996.6;;;20.9;37.3
76046;BME280;64741;41.730;44.788;2023-11-22T06:01:51;996.4;;;20.9;37.4
76046;BME280;64741;41.730;44.788;2023-11-22T06:06:47;996.4;;;20.9;36.9
76046;BME280;64741;41.730;44.788;2023-11-22T06:11:55;996.4;;;20.9;37
76046;BME280;64741;41.730;44.788;2023-11-22T06:16:51;996.5;;;21;37.3
76046;BME280;64741;41.730;44.788;2023-11-22T06:21:41;996.5;;;21;37.9
76046;BME280;64741;41.730;44.788;2023-11-22T06:26:37;996.7;;;21.1;38.3
76046;BME280;64741;41.730;44.788;2023-11-22T06:31:47;996.7;;;21.1;38.9
76046;BME280;64741;41.730;44.788;2023-11-22T06:36:55;996.8;;;21.2;39.6
76046;BME280;64741;41.730;44.788;2023-11-22T06:41:49;996.8;;;21.3;41
76046;BME280;64741;41.730;44.788;2023-11-22T06:46:39;996.8;;;21.3;42.2
76046;BME280;64741;41.730;44.788;2023-11-22T06:51:37;996.7;;;21.4;43.1
76046;BME280;64741;41.730;44.788;2023-11-22T06:56:45;996.7;;;21.4;43.4
76046;BME280;64741;41.730;44.788;2023-11-22T07:01:55;996.6;;;21.5;44
76046;BME280;64741;41.730;44.788;2023-11-22T07:06:53;996.5;;;21.5;43.7
76046;BME280;64741;41.730;44.788;2023-11-22T07:11:43;996.5;;;21.5;43.5
76046;BME280;64741;41.730;44.788;2023-11-22T07:16:51;996.4;;;21.5;42.8
76046;BME280;64741;41.730;44.788;2023-11-22T07:21:48;996.4;;;21.5;42.6
76046;BME280;64741;41.730;44.788;2023-11-22T07:26:57;996.4;;;21.5;42.7
76046;BME280;64741;41.730;44.788;2023-11-22T07:31:53;996.4;;;21.5;42.7
76046;BME280;64741;41.730;44.788;2023-11-22T07:36:07;996.4;;;21.5;42.5
76046;BME280;64741;41.730;44.788;2023-11-22T07:41:51;996.4;;;21.5;42.3
76046;BME280;64741;41.730;44.788;2023-11-22T07:46:49;996.4;;;21.4;41.8
76046;BME280;64741;41.730;44.788;2023-11-22T07:51:39;996.3;;;21.4;41.6
76046;BME280;64741;41.730;44.788;2023-11-22T07:56:51;996.2;;;21.4;41.2
76046;BME280;64741;41.730;44.788;2023-11-22T08:01:43;996.2;;;21.4;40.9
76046;BME280;64741;41.730;44.788;2023-11-22T08:06:51;996.2;;;21.4;40.5
76046;BME280;64741;41.730;44.788;2023-11-22T08:11:47;996.1;;;21.4;40.2
76046;BME280;64741;41.730;44.788;2023-11-22T08:16:55;995.9;;;21.4;40
76046;BME280;64741;41.730;44.788;2023-11-22T08:21:51;995.8;;;21.4;39.9
76046;BME280;64741;41.730;44.788;2023-11-22T08:26:43;995.7;;;21.4;40
76046;BME280;64741;41.730;44.788;2023-11-22T08:31:53;995.7;;;21.4;40.1
76046;BME280;64741;41.730;44.788;2023-11-22T08:36:47;995.8;;;21.4;40.2
76046;BME280;64741;41.730;44.788;2023-11-22T08:41:55;995.8;;;21.4;40.2
76046;BME280;64741;41.730;44.788;2023-11-22T08:46:49;995.8;;;21.4;40.2
76046;BME280;64741;41.730;44.788;2023-11-22T08:51:23;995.7;;;21.4;40.1
76046;BME280;64741;41.730;44.788;2023-11-22T08:56:57;995.6;;;21.4;40.1
76046;BME280;64741;41.730;44.788;2023-11-22T09:01:49;995.5;;;21.4;40.2
76046;BME280;64741;41.730;44.788;2023-11-22T09:06:55;995.4;;;21.5;40.3
76046;BME280;64741;41.730;44.788;2023-11-22T09:11:51;995.4;;;21.5;40.3
76046;BME280;64741;41.730;44.788;2023-11-22T09:16:43;995.4;;;21.5;40.3
76046;BME280;64741;41.730;44.788;2023-11-22T09:21:55;995.4;;;21.5;40.3
76046;BME280;64741;41.730;44.788;2023-11-22T09:26:47;995.3;;;21.5;40.3
76046;BME280;64741;41.730;44.788;2023-11-22T09:31:55;995.3;;;21.5;40.3
76046;BME280;64741;41.730;44.788;2023-11-22T09:36:53;995.2;;;21.5;40.2
76046;BME280;64741;41.730;44.788;2023-11-22T09:41:27;995.1;;;21.5;40.2
76046;BME280;64741;41.730;44.788;2023-11-22T09:46:55;995;;;21.5;40.2
76046;BME280;64741;41.730;44.788;2023-11-22T09:51:47;994.9;;;21.5;40.3
76046;BME280;64741;41.730;44.788;2023-11-22T09:56:58;994.9;;;21.5;40.2
76046;BME280;64741;41.730;44.788;2023-11-22T10:01:07;994.9;;;21.5;40
76046;BME280;64741;41.730;44.788;2023-11-22T10:06:45;994.9;;;21.5;40
76046;BME280;64741;41.730;44.788;2023-11-22T10:11:57;994.9;;;21.5;39.9
76046;BME280;64741;41.730;44.788;2023-11-22T10:16:57;994.8;;;21.5;39.9
76046;BME280;64741;41.730;44.788;2023-11-22T10:22:01;994.7;;;21.5;39.8
76046;BME280;64741;41.730;44.788;2023-11-22T10:26:51;994.7;;;21.5;39.7
76046;BME280;64741;41.730;44.788;2023-11-22T10:31:29;994.6;;;21.5;39.8
76046;BME280;64741;41.730;44.788;2023-11-22T10:36:59;994.6;;;21.5;39.8
76046;BME280;64741;41.730;44.788;2023-11-22T10:41:51;994.5;;;21.5;39.8
76046;BME280;64741;41.730;44.788;2023-11-22T10:46:59;994.5;;;21.5;39.7
76046;BME280;64741;41.730;44.788;2023-11-22T10:51:50;994.4;;;21.5;39.8
76046;BME280;64741;41.730;44.788;2023-11-22T10:56:42;994.4;;;21.5;39.7
76046;BME280;64741;41.730;44.788;2023-11-22T11:01:58;994.4;;;21.5;39.7
76046;BME280;64741;41.730;44.788;2023-11-22T11:06:51;994.4;;;21.5;39.6
76046;BME280;64741;41.730;44.788;2023-11-22T11:11:55;994.5;;;21.5;39.6
76046;BME280;64741;41.730;44.788;2023-11-22T11:16:51;994.5;;;21.5;39.6
76046;BME280;64741;41.730;44.788;2023-11-22T11:21:39;994.5;;;21.5;39.6
76046;BME280;64741;41.730;44.788;2023-11-22T11:26:53;994.6;;;21.5;39.6
76046;BME280;64741;41.730;44.788;2023-11-22T11:31:31;994.6;;;21.5;39.6
76046;BME280;64741;41.730;44.788;2023-11-22T11:36:53;994.5;;;21.5;39.7
76046;BME280;64741;41.730;44.788;2023-11-22T11:41:49;994.6;;;21.5;39.6
76046;BME280;64741;41.730;44.788;2023-11-22T11:46:39;994.6;;;21.5;39.6
76046;BME280;64741;41.730;44.788;2023-11-22T11:51:55;994.7;;;21.5;39.6
76046;BME280;64741;41.730;44.788;2023-11-22T11:56:47;994.7;;;21.5;39.8
76046;BME280;64741;41.730;44.788;2023-11-22T12:01:55;994.8;;;21.5;39.8
76046;BME280;64741;41.730;44.788;2023-11-22T12:06:51;994.8;;;21.5;39.8
76046;BME280;64741;41.730;44.788;2023-11-22T12:11:13;994.8;;;21.5;39.9
76046;BME280;64741;41.730;44.788;2023-11-22T12:16:56;994.7;;;21.5;40.1
76046;BME280;64741;41.730;44.788;2023-11-22T12:21:47;994.7;;;21.5;40.3
76046;BME280;64741;41.730;44.788;2023-11-22T12:26:55;994.8;;;21.5;40.5
76046;BME280;64741;41.730;44.788;2023-11-22T12:31:49;994.7;;;21.5;40.6
76046;BME280;64741;41.730;44.788;2023-11-22T12:36:41;994.7;;;21.5;40.7
76046;BME280;64741;41.730;44.788;2023-11-22T12:41:53;994.7;;;21.5;41
76046;BME280;64741;41.730;44.788;2023-11-22T12:46:46;994.7;;;21.5;41.6
76046;BME280;64741;41.730;44.788;2023-11-22T12:51:55;994.7;;;21.5;42.8
76046;BME280;64741;41.730;44.788;2023-11-22T12:56:52;994.8;;;21.5;44.1
76046;BME280;64741;41.730;44.788;2023-11-22T13:01:43;994.9;;;21.5;45
76046;BME280;64741;41.730;44.788;2023-11-22T13:06:57;994.9;;;21.6;45.4
76046;BME280;64741;41.730;44.788;2023-11-22T13:11:55;995;;;21.6;45.2
76046;BME280;64741;41.730;44.788;2023-11-22T13:16:45;995.1;;;21.6;44.9
76046;BME280;64741;41.730;44.788;2023-11-22T13:21:45;995.1;;;21.6;44.4
76046;BME280;64741;41.730;44.788;2023-11-22T13:26:45;995.1;;;21.6;43.9
76046;BME280;64741;41.730;44.788;2023-11-22T13:31:47;995.2;;;21.6;43.4
76046;BME280;64741;41.730;44.788;2023-11-22T13:36:17;995.2;;;21.6;43
76046;BME280;64741;41.730;44.788;2023-11-22T13:41:49;995.2;;;21.6;42.8
76046;BME280;64741;41.730;44.788;2023-11-22T13:46:35;995.2;;;21.6;42.5
76046;BME280;64741;41.730;44.788;2023-11-22T13:51:47;995.2;;;21.6;42.3
76046;BME280;64741;41.730;44.788;2023-11-22T13:56:57;995.3;;;21.5;42.1
76046;BME280;64741;41.730;44.788;2023-11-22T14:01:53;995.4;;;21.5;41.9
76046;BME280;64741;41.730;44.788;2023-11-22T14:06:41;995.5;;;21.5;41.8
76046;BME280;64741;41.730;44.788;2023-11-22T14:11:35;995.5;;;21.5;41.6
76046;BME280;64741;41.730;44.788;2023-11-22T14:16:41;995.6;;;21.5;41.5
76046;BME280;64741;41.730;44.788;2023-11-22T14:21:45;995.6;;;21.5;41.4
76046;BME280;64741;41.730;44.788;2023-11-22T14:26:51;995.7;;;21.5;41.3
76046;BME280;64741;41.730;44.788;2023-11-22T14:31:51;995.7;;;21.5;41.2
76046;BME280;64741;41.730;44.788;2023-11-22T14:36:55;995.7;;;21.5;41.1
76046;BME280;64741;41.730;44.788;2023-11-22T14:41:51;995.8;;;21.5;41
76046;BME280;64741;41.730;44.788;2023-11-22T14:46:59;995.9;;;21.5;40.9
76046;BME280;64741;41.730;44.788;2023-11-22T14:51:55;995.9;;;21.5;40.9
76046;BME280;64741;41.730;44.788;2023-11-22T14:56:43;995.9;;;21.5;40.8
76046;BME280;64741;41.730;44.788;2023-11-22T15:01:55;995.9;;;21.5;40.7
76046;BME280;64741;41.730;44.788;2023-11-22T15:06:45;995.9;;;21.5;40.6
76046;BME280;64741;41.730;44.788;2023-11-22T15:11:43;996;;;21.4;40.6
76046;BME280;64741;41.730;44.788;2023-11-22T15:16:47;996;;;21.4;40.6
76046;BME280;64741;41.730;44.788;2023-11-22T15:21:49;996;;;21.4;40.5
76046;BME280;64741;41.730;44.788;2023-11-22T15:26:53;996.1;;;21.4;40.5
76046;BME280;64741;41.730;44.788;2023-11-22T15:31:45;996.1;;;21.4;40.4
76046;BME280;64741;41.730;44.788;2023-11-22T15:36:53;996.2;;;21.4;40.3
76046;BME280;64741;41.730;44.788;2023-11-22T15:41:49;996.2;;;21.4;40.3
76046;BME280;64741;41.730;44.788;2023-11-22T15:46:31;996.2;;;21.4;40.3
76046;BME280;64741;41.730;44.788;2023-11-22T15:51:55;996.2;;;21.4;40.4
76046;BME280;64741;41.730;44.788;2023-11-22T15:56:45;996.1;;;21.4;41
76046;BME280;64741;41.730;44.788;2023-11-22T16:01:43;996.2;;;21.4;41.3
76046;BME280;64741;41.730;44.788;2023-11-22T16:06:51;996.2;;;21.4;41.5
76046;BME280;64741;41.730;44.788;2023-11-22T16:11:47;996.2;;;21.4;41.7
76046;BME280;64741;41.730;44.788;2023-11-22T16:16:51;996.2;;;21.5;42
76046;BME280;64741;41.730;44.788;2023-11-22T16:21:47;996.3;;;21.4;42.6
76046;BME280;64741;41.730;44.788;2023-11-22T16:26:51;996.3;;;21.5;43.3
76046;BME280;64741;41.730;44.788;2023-11-22T16:31:53;996.3;;;21.5;44
76046;BME280;64741;41.730;44.788;2023-11-22T16:36:45;996.3;;;21.5;44.3
76046;BME280;64741;41.730;44.788;2023-11-22T16:41:57;996.4;;;21.5;44.6
76046;BME280;64741;41.730;44.788;2023-11-22T16:46:47;996.5;;;21.5;44.7
76046;BME280;64741;41.730;44.788;2023-11-22T16:51:43;996.6;;;21.5;44.9
76046;BME280;64741;41.730;44.788;2023-11-22T16:56:49;996.6;;;21.5;45.1
76046;BME280;64741;41.730;44.788;2023-11-22T17:01:49;996.6;;;21.5;45.1
76046;BME280;64741;41.730;44.788;2023-11-22T17:06:53;996.5;;;21.5;44.9
76046;BME280;64741;41.730;44.788;2023-11-22T17:11:49;996.5;;;21.5;44.7
76046;BME280;64741;41.730;44.788;2023-11-22T17:16:57;996.5;;;21.5;44.7
76046;BME280;64741;41.730;44.788;2023-11-22T17:21:27;996.5;;;21.5;44.6
76046;BME280;64741;41.730;44.788;2023-11-22T17:26:47;996.5;;;21.5;44.7
76046;BME280;64741;41.730;44.788;2023-11-22T17:31:56;996.5;;;21.5;44.4
76046;BME280;64741;41.730;44.788;2023-11-22T17:36:35;996.5;;;21.5;44.1
76046;BME280;64741;41.730;44.788;2023-11-22T17:41:45;996.5;;;21.5;43.8
76046;BME280;64741;41.730;44.788;2023-11-22T17:46:47;996.6;;;21.5;43.5
76046;BME280;64741;41.730;44.788;2023-11-22T17:51:49;996.7;;;21.5;43.3
76046;BME280;64741;41.730;44.788;2023-11-22T17:56:54;996.7;;;21.5;43
76046;BME280;64741;41.730;44.788;2023-11-22T18:01:49;996.8;;;21.4;42.8
76046;BME280;64741;41.730;44.788;2023-11-22T18:06:57;996.8;;;21.4;42.7
76046;BME280;64741;41.730;44.788;2023-11-22T18:11:49;996.9;;;21.4;42.4
76046;BME280;64741;41.730;44.788;2023-11-22T18:16:47;996.8;;;21.5;42.3
76046;BME280;64741;41.730;44.788;2023-11-22T18:21:57;996.8;;;21.4;42.1
76046;BME280;64741;41.730;44.788;2023-11-22T18:26:47;996.8;;;21.4;42
76046;BME280;64741;41.730;44.788;2023-11-22T18:31:21;996.8;;;21.4;41.8
76046;BME280;64741;41.730;44.788;2023-11-22T18:36:49;996.9;;;21.4;41.8
76046;BME280;64741;41.730;44.788;2023-11-22T18:41:50;996.9;;;21.5;41.5
76046;BME280;64741;41.730;44.788;2023-11-22T18:46:55;996.9;;;21.5;41.5
76046;BME280;64741;41.730;44.788;2023-11-22T18:51:52;996.9;;;21.5;41.6
76046;BME280;64741;41.730;44.788;2023-11-22T18:56:33;996.9;;;21.5;41.7
76046;BME280;64741;41.730;44.788;2023-11-22T19:01:53;996.9;;;21.6;41.6
76046;BME280;64741;41.730;44.788;2023-11-22T19:06:25;996.9;;;21.6;41.8
76046;BME280;64741;41.730;44.788;2023-11-22T19:11:55;996.9;;;21.6;42.2
76046;BME280;64741;41.730;44.788;2023-11-22T19:16:35;996.9;;;21.6;42.3
76046;BME280;64741;41.730;44.788;2023-11-22T19:21:45;996.9;;;21.6;42.1
76046;BME280;64741;41.730;44.788;2023-11-22T19:26:47;996.9;;;21.6;41.8
76046;BME280;64741;41.730;44.788;2023-11-22T19:31:35;996.8;;;21.7;41.6
76046;BME280;64741;41.730;44.788;2023-11-22T19:36:45;996.8;;;21.6;41.5
76046;BME280;64741;41.730;44.788;2023-11-22T19:41:47;996.8;;;21.6;41.5
76046;BME280;64741;41.730;44.788;2023-11-22T19:46:53;996.8;;;21.7;41.4
76046;BME280;64741;41.730;44.788;2023-11-22T19:51:53;996.8;;;21.7;41.5
76046;BME280;64741;41.730;44.788;2023-11-22T19:56:45;996.9;;;21.7;41.5
76046;BME280;64741;41.730;44.788;2023-11-22T20:01:57;996.9;;;21.7;41.4
76046;BME280;64741;41.730;44.788;2023-11-22T20:06:47;996.8;;;21.7;41.4
76046;BME280;64741;41.730;44.788;2023-11-22T20:11:47;996.7;;;21.7;41.3
76046;BME280;64741;41.730;44.788;2023-11-22T20:16:47;996.7;;;21.7;41.2
76046;BME280;64741;41.730;44.788;2023-11-22T20:21:43;996.7;;;21.7;41.2
76046;BME280;64741;41.730;44.788;2023-11-22T20:26:49;996.7;;;21.7;41.1
76046;BME280;64741;41.730;44.788;2023-11-22T20:31:45;996.6;;;21.7;41
76046;BME280;64741;41.730;44.788;2023-11-22T20:36:57;996.5;;;21.7;41
76046;BME280;64741;41.730;44.788;2023-11-22T20:41:51;996.4;;;21.7;41
76046;BME280;64741;41.730;44.788;2023-11-22T20:46:45;996.4;;;21.7;40.9
76046;BME280;64741;41.730;44.788;2023-11-22T20:51:59;996.3;;;21.7;40.8
76046;BME280;64741;41.730;44.788;2023-11-22T20:56:43;996.2;;;21.7;40.8
76046;BME280;64741;41.730;44.788;2023-11-22T21:01:33;996.3;;;21.7;40.7
76046;BME280;64741;41.730;44.788;2023-11-22T21:06:49;996.2;;;21.6;40.6
76046;BME280;64741;41.730;44.788;2023-11-22T21:11:47;996.2;;;21.6;40.5
76046;BME280;64741;41.730;44.788;2023-11-22T21:16:49;996.2;;;21.6;40.4
76046;BME280;64741;41.730;44.788;2023-11-22T21:21:49;996;;;21.6;40.4
76046;BME280;64741;41.730;44.788;2023-11-22T21:26:57;995.9;;;21.6;40.3
76046;BME280;64741;41.730;44.788;2023-11-22T21:31:53;995.9;;;21.6;40.4
76046;BME280;64741;41.730;44.788;2023-11-22T21:36:45;996;;;21.5;40.4
76046;BME280;64741;41.730;44.788;2023-11-22T21:41:55;996;;;21.5;40.4
76046;BME280;64741;41.730;44.788;2023-11-22T21:46:47;995.9;;;21.6;40.4
76046;BME280;64741;41.730;44.788;2023-11-22T21:51:47;995.8;;;21.6;40.3
76046;BME280;64741;41.730;44.788;2023-11-22T21:56:49;995.7;;;21.6;40.3
76046;BME280;64741;41.730;44.788;2023-11-22T22:01:49;995.6;;;21.6;40.3
76046;BME280;64741;41.730;44.788;2023-11-22T22:06:53;995.6;;;21.6;40.1
76046;BME280;64741;41.730;44.788;2023-11-22T22:11:47;995.6;;;21.6;40.1
76046;BME280;64741;41.730;44.788;2023-11-22T22:16:57;995.6;;;21.6;40
76046;BME280;64741;41.730;44.788;2023-11-22T22:21:09;995.5;;;21.6;40.2
76046;BME280;64741;41.730;44.788;2023-11-22T22:26:43;995.4;;;21.6;40.5
76046;BME280;64741;41.730;44.788;2023-11-22T22:31:57;995.4;;;21.6;40.4
76046;BME280;64741;41.730;44.788;2023-11-22T22:36:43;995.4;;;21.6;40
76046;BME280;64741;41.730;44.788;2023-11-22T22:41:45;995.3;;;21.6;39.9
76046;BME280;64741;41.730;44.788;2023-11-22T22:46:39;995.3;;;21.6;39.7
76046;BME280;64741;41.730;44.788;2023-11-22T22:51:49;995.2;;;21.6;39.6
76046;BME280;64741;41.730;44.788;2023-11-22T22:56:37;995.1;;;21.6;39.6
76046;BME280;64741;41.730;44.788;2023-11-22T23:01:47;995;;;21.6;39.9
76046;BME280;64741;41.730;44.788;2023-11-22T23:06:57;994.9;;;21.6;40
76046;BME280;64741;41.730;44.788;2023-11-22T23:11:49;994.9;;;21.6;39.8
76046;BME280;64741;41.730;44.788;2023-11-22T23:16:43;994.9;;;21.6;39.8
76046;BME280;64741;41.730;44.788;2023-11-22T23:21:59;994.8;;;21.6;40
76046;BME280;64741;41.730;44.788;2023-11-22T23:26:45;994.8;;;21.6;40
76046;BME280;64741;41.730;44.788;2023-11-22T23:31:45;994.7;;;21.5;39.9
76046;BME280;64741;41.730;44.788;2023-11-22T23:36:47;994.6;;;21.5;39.8
76046;BME280;64741;41.730;44.788;2023-11-22T23:41:47;994.5;;;21.5;39.7
76046;BME280;64741;41.730;44.788;2023-11-22T23:46:53;994.4;;;21.5;39.7
76046;BME280;64741;41.730;44.788;2023-11-22T23:51:47;994.4;;;21.5;39.8
76046;BME280;64741;41.730;44.788;2023-11-22T23:56:53;994.3;;;21.5;39.8
